KCKV/CKV METAR and TAF weather

Enter ICAO airport designator
Station Type Date Time Source
KCKV METAR 2021/03/05 19:52 UTC NOAA

KCKV 051952Z AUTO 04006KT 10SM CLR 07/M06 A3026 RMK AO2 SLP248 T00721056


Station Type Date Time Source
KCKV Decoded METAR 2021/03/05 19:52 UTC NOAA

CLARKSVILLE OUTLAW FIELD, TN, United States (KCKV) 36-37N 87-25W 165M
Mar 05, 2021 - 02:52 PM EST / 2021.03.05 1952 UTC
Wind: from the NE (040 degrees) at 7 MPH (6 KT):0
Visibility: 10 mile(s):0
Sky conditions: clear
Temperature: 45.0 F (7.2 C)
Dew Point: 21.9 F (-5.6 C)
Relative Humidity: 39%
Pressure (altimeter): 30.26 in. Hg (1024 hPa)
ob: KCKV 051952Z AUTO 04006KT 10SM CLR 07/M06 A3026 RMK AO2 SLP248 T00721056
cycle: 20

Station Type Date Time Source
KCKV TAF 2021/03/05 18:27 UTC NOAA

TAF KCKV 051724Z 0518/0618 06009G18KT P6SM SKC
FM052200 04008KT P6SM BKN200

Example: see airport list